Time;durP1;ratioP1;P1;durP2;ratioP2;P2;SDS_P1;SDS_P2;PMS_P1;PMS_P2;Temp;Humidity;BMP_temperature;BMP_pressure;BME280_temperature;BME280_humidity;BME280_pressure;Samples;Min_cycle;Max_cycle;Signal;HPM_P1;HPM_P2
2022/06/04 00:00:33;;;;;;;22.15;3.90;;;;;;;26.03;47.94;98514.31;5094066;28;20375;-49
2022/06/04 00:02:59;;;;;;;18.08;4.47;;;;;;;26.01;48.13;98521.91;5094102;28;20524;-49
2022/06/04 00:05:30;;;;;;;20.55;4.65;;;;;;;25.89;48.65;98537.78;5092730;28;20024;-48
2022/06/04 00:08:01;;;;;;;13.73;3.40;;;;;;;25.96;48.67;98548.94;5092749;28;20028;-49
2022/06/04 00:16:05;;;;;;;;;;;;;;;25.97;47.92;98563.97;5094554;28;20508;-47
2022/06/04 00:18:31;;;;;;;17.35;3.90;;;;;;;25.85;47.88;98553.72;5092540;28;20382;-47
2022/06/04 00:20:57;;;;;;;15.60;4.15;;;;;;;25.66;48.96;98545.81;5092384;28;20501;-47
2022/06/04 00:23:23;;;;;;;12.95;3.53;;;;;;;25.39;49.59;98552.03;5092380;28;20043;-47
2022/06/04 00:25:53;;;;;;;15.55;4.25;;;;;;;25.19;50.43;98555.91;5092338;28;20032;-47
2022/06/04 00:28:21;;;;;;;18.25;5.13;;;;;;;24.96;50.98;98565.78;5093678;28;20024;-47
2022/06/04 00:30:48;;;;;;;14.18;4.05;;;;;;;24.78;51.47;98561.28;5093598;28;20020;-47
2022/06/04 00:33:16;;;;;;;25.90;5.70;;;;;;;24.69;52.44;98564.66;5092267;28;20405;-47
2022/06/04 00:35:42;;;;;;;18.35;4.25;;;;;;;24.75;52.07;98573.44;5091901;28;20044;-47
2022/06/04 00:38:08;;;;;;;16.60;4.25;;;;;;;24.78;52.44;98572.81;5092132;28;20016;-47
2022/06/04 00:41:18;;;;;;;15.05;4.82;;;;;;;25.02;52.11;98575.31;5093307;28;20032;-47
2022/06/04 00:44:25;;;;;;;16.80;4.13;;;;;;;25.18;51.55;98575.03;5093365;28;20116;-46
2022/06/04 00:47:12;;;;;;;20.98;4.70;;;;;;;25.21;51.56;98572.56;5091871;28;20028;-47
2022/06/04 00:49:38;;;;;;;20.75;4.07;;;;;;;25.19;51.46;98576.59;5091935;28;20020;-49
2022/06/04 00:52:09;;;;;;;17.30;4.25;;;;;;;25.09;51.48;98566.84;5093186;28;20085;-48
2022/06/04 00:54:35;;;;;;;17.08;4.75;;;;;;;25.06;51.72;98570.94;5091870;28;20028;-49
2022/06/04 00:57:03;;;;;;;26.42;4.90;;;;;;;24.95;52.19;98569.56;5093078;28;20028;-49
2022/06/04 00:59:47;;;;;;;17.58;4.47;;;;;;;24.88;52.37;98566.47;5092955;28;20018;-48
2022/06/04 01:02:31;;;;;;;18.73;4.93;;;;;;;24.72;52.78;98561.38;5093013;28;20028;-49
2022/06/04 01:05:22;;;;;;;21.98;5.85;;;;;;;24.69;53.27;98558.50;5093028;28;20247;-48
2022/06/04 01:08:05;;;;;;;17.63;4.38;;;;;;;24.82;52.87;98564.97;5091544;28;20573;-47
2022/06/04 01:11:18;;;;;;;15.73;4.32;;;;;;;25.02;52.22;98567.25;5091435;28;20036;-47
2022/06/04 01:14:20;;;;;;;17.33;4.18;;;;;;;24.90;52.45;98567.75;5030351;28;20025;-47
2022/06/04 01:16:57;;;;;;;15.45;4.57;;;;;;;24.82;52.78;98573.03;5030343;28;20056;-47
2022/06/04 01:19:52;;;;;;;20.88;3.83;;;;;;;24.96;52.73;98595.31;5013689;28;20029;-47
2022/06/04 01:22:59;;;;;;;14.60;2.70;;;;;;;25.55;48.16;98594.72;5030270;28;20040;-47
2022/06/04 01:25:29;;;;;;;10.63;2.60;;;;;;;25.89;45.87;98595.03;5011702;28;20048;-47
2022/06/04 01:28:04;;;;;;;13.80;3.65;;;;;;;26.12;45.50;98595.09;5030204;28;20381;-47
2022/06/04 01:30:42;;;;;;;14.48;2.70;;;;;;;26.24;45.09;98600.72;5030142;28;20443;-47
2022/06/04 01:33:25;;;;;;;9.90;2.42;;;;;;;26.18;44.22;98598.44;5030092;28;20462;-47
2022/06/04 01:36:16;;;;;;;9.32;2.15;;;;;;;25.89;44.58;98599.63;5029802;28;20057;-47
2022/06/04 01:38:54;;;;;;;15.88;2.65;;;;;;;25.89;44.66;98605.00;5022979;28;20104;-47
2022/06/04 01:41:50;;;;;;;16.05;2.70;;;;;;;26.00;43.73;98581.41;5029855;28;20065;-47
2022/06/04 01:44:36;;;;;;;7.85;2.35;;;;;;;25.81;43.59;98578.81;5059002;28;20040;-47
2022/06/04 01:47:05;;;;;;;12.32;2.90;;;;;;;25.59;44.37;98582.25;5092199;28;20118;-47
2022/06/04 01:49:36;;;;;;;11.48;2.10;;;;;;;25.69;43.62;98593.59;5092133;28;20382;-47
2022/06/04 01:52:08;;;;;;;12.77;2.65;;;;;;;25.86;43.66;98597.53;5092197;28;20375;-46
2022/06/04 01:54:41;;;;;;;14.02;2.10;;;;;;;26.06;43.03;98588.25;5092338;28;20066;-47
2022/06/04 01:57:20;;;;;;;17.58;3.30;;;;;;;26.18;42.55;98585.00;5092147;28;20167;-47
2022/06/04 01:59:57;;;;;;;13.48;3.03;;;;;;;26.22;42.45;98584.09;5092026;28;20024;-47
2022/06/04 02:02:28;;;;;;;11.52;2.22;;;;;;;26.21;42.62;98587.09;5092040;28;20096;-47
2022/06/04 02:05:00;;;;;;;11.57;2.75;;;;;;;26.10;42.40;98586.53;5092328;28;20020;-47
2022/06/04 02:07:32;;;;;;;13.30;2.63;;;;;;;25.99;42.38;98590.56;5091998;28;20032;-47
2022/06/04 02:10:32;;;;;;;12.63;2.53;;;;;;;25.77;42.87;98591.28;5090695;28;20073;-47
2022/06/04 02:13:02;;;;;;;17.35;4.75;;;;;;;25.61;43.56;98601.56;5090659;28;20028;-47
2022/06/04 02:15:36;;;;;;;9.15;2.25;;;;;;;25.73;43.25;98609.13;5091790;28;20088;-47
2022/06/04 02:18:03;;;;;;;12.63;3.25;;;;;;;25.61;43.45;98612.31;5091887;28;20043;-47
2022/06/04 02:20:29;;;;;;;11.02;3.35;;;;;;;25.58;43.45;98605.66;5092192;28;20071;-47
2022/06/04 02:22:56;;;;;;;11.32;1.90;;;;;;;25.65;43.43;98610.63;5094861;28;20040;-47
2022/06/04 02:25:22;;;;;;;14.65;2.72;;;;;;;25.60;43.28;98610.75;5094661;28;20016;-47
2022/06/04 02:27:52;;;;;;;21.50;3.30;;;;;;;25.52;43.42;98614.94;5094657;28;20127;-47
2022/06/04 02:30:21;;;;;;;12.55;2.10;;;;;;;25.40;43.93;98611.97;5095967;28;20023;-48
2022/06/04 02:32:59;;;;;;;12.88;2.15;;;;;;;25.26;43.92;98612.75;5095884;28;20027;-49
2022/06/04 02:35:30;;;;;;;14.63;2.63;;;;;;;25.10;44.50;98614.13;5095620;28;20081;-48
2022/06/04 02:38:27;;;;;;;21.25;3.25;;;;;;;25.08;44.68;98611.72;5094556;28;20024;-49
2022/06/04 02:41:02;;;;;;;13.93;2.67;;;;;;;25.17;44.41;98605.66;5066473;28;20044;-48
2022/06/04 02:43:49;;;;;;;12.23;2.60;;;;;;;25.18;44.39;98608.06;5095720;28;20020;-48
2022/06/04 02:46:41;;;;;;;8.27;2.17;;;;;;;25.21;44.51;98598.59;5095650;28;20058;-48
2022/06/04 02:49:16;;;;;;;19.33;2.65;;;;;;;25.24;44.39;98601.50;5094292;28;20393;-48
2022/06/04 02:51:49;;;;;;;13.63;2.13;;;;;;;25.23;44.55;98607.19;5095511;28;20036;-48
2022/06/04 02:54:34;;;;;;;11.30;2.38;;;;;;;25.13;44.63;98594.72;5095540;28;20116;-48
2022/06/04 02:57:05;;;;;;;10.88;2.45;;;;;;;25.08;44.89;98609.03;5094178;28;20067;-48
2022/06/04 02:59:34;;;;;;;18.15;3.75;;;;;;;25.05;44.98;98606.16;5093914;28;20028;-48
2022/06/04 03:02:02;;;;;;;13.90;2.42;;;;;;;24.97;45.25;98604.16;5095311;28;20145;-49
2022/06/04 03:04:28;;;;;;;7.25;1.83;;;;;;;24.89;45.25;98605.63;5095254;28;20023;-49
2022/06/04 03:07:04;;;;;;;16.83;2.83;;;;;;;24.86;45.73;98607.03;5093927;28;20119;-49
2022/06/04 03:09:30;;;;;;;10.13;2.33;;;;;;;24.89;45.56;98605.63;5095189;28;20020;-49
2022/06/04 03:11:56;;;;;;;13.68;2.35;;;;;;;24.84;45.59;98601.16;5095369;28;20054;-48
2022/06/04 03:14:21;;;;;;;15.98;2.42;;;;;;;24.71;45.94;98604.63;5095393;28;20038;-49
2022/06/04 03:16:48;;;;;;;21.42;2.80;;;;;;;24.60;46.27;98597.84;5093684;28;20051;-48
2022/06/04 03:19:14;;;;;;;10.77;2.22;;;;;;;24.60;46.31;98603.22;5094955;28;20059;-48
2022/06/04 03:21:42;;;;;;;15.50;3.08;;;;;;;24.48;46.59;98606.31;5094914;28;20086;-49
2022/06/04 03:24:08;;;;;;;8.68;2.28;;;;;;;24.42;46.83;98602.13;5094882;28;20020;-48
2022/06/04 03:26:34;;;;;;;12.13;3.00;;;;;;;24.35;47.00;98605.19;5094815;28;20024;-49
2022/06/04 03:29:01;;;;;;;11.48;2.22;;;;;;;24.39;46.90;98608.06;5093496;28;20401;-49
2022/06/04 03:31:27;;;;;;;9.60;3.15;;;;;;;24.35;47.12;98602.50;5094489;28;20375;-49
2022/06/04 03:33:54;;;;;;;11.30;1.90;;;;;;;24.37;47.10;98610.25;5093425;28;20027;-48
2022/06/04 03:36:21;;;;;;;10.30;2.33;;;;;;;24.33;47.28;98616.22;5093069;28;20055;-48
2022/06/04 03:38:54;;;;;;;18.17;2.92;;;;;;;24.28;47.21;98616.28;5094609;28;20020;-48
2022/06/04 03:41:20;;;;;;;13.85;2.45;;;;;;;24.28;47.19;98620.84;5093317;28;20488;-48
2022/06/04 03:43:48;;;;;;;15.02;2.50;;;;;;;24.23;47.34;98623.63;5094635;28;20085;-49
2022/06/04 03:46:15;;;;;;;22.40;2.47;;;;;;;24.15;47.82;98621.56;5094483;28;20036;-48
2022/06/04 03:48:41;;;;;;;19.88;3.08;;;;;;;24.11;47.81;98629.44;5094367;28;20031;-48
2022/06/04 03:51:07;;;;;;;8.20;2.25;;;;;;;24.06;47.88;98629.50;5094371;28;20027;-49
2022/06/04 03:53:32;;;;;;;12.55;2.85;;;;;;;23.98;47.82;98622.91;5093169;28;20020;-49
2022/06/04 03:55:58;;;;;;;11.65;2.17;;;;;;;23.92;48.24;98635.59;5094333;28;20028;-49
2022/06/04 03:58:29;;;;;;;14.70;2.28;;;;;;;23.84;48.27;98627.38;5094291;28;20016;-48
2022/06/04 04:00:57;;;;;;;10.40;1.92;;;;;;;23.81;48.26;98627.97;5094162;28;20398;-48
2022/06/04 04:03:24;;;;;;;13.63;2.03;;;;;;;23.68;48.56;98632.94;5092849;28;20028;-49
2022/06/04 04:05:53;;;;;;;9.18;1.85;;;;;;;23.49;48.88;98629.41;5092785;28;20055;-49
2022/06/04 04:08:22;;;;;;;8.73;2.45;;;;;;;23.23;49.35;98632.38;5092746;28;20029;-48
2022/06/04 04:10:48;;;;;;;10.13;2.03;;;;;;;23.17;50.03;98633.53;5092742;28;20126;-49
2022/06/04 04:13:16;;;;;;;9.25;2.60;;;;;;;23.30;50.05;98635.53;5092697;28;20054;-49
2022/06/04 04:15:42;;;;;;;13.55;2.38;;;;;;;23.42;49.62;98626.28;5092570;28;20110;-49
2022/06/04 04:18:08;;;;;;;6.60;1.80;;;;;;;23.46;49.16;98622.75;5092590;28;20040;-48
2022/06/04 04:20:37;;;;;;;13.13;2.20;;;;;;;23.36;49.59;98627.41;5092403;28;20081;-49
2022/06/04 04:23:05;;;;;;;5.05;1.40;;;;;;;23.29;49.46;98636.59;5093825;28;20493;-48
2022/06/04 04:25:31;;;;;;;10.45;1.77;;;;;;;23.40;49.63;98631.94;5093765;28;20020;-49
2022/06/04 04:27:59;;;;;;;9.02;2.00;;;;;;;23.75;48.98;98637.16;5092392;28;20020;-48
2022/06/04 04:30:29;;;;;;;6.25;1.85;;;;;;;24.29;47.98;98635.88;5092294;28;20034;-48
2022/06/04 04:32:55;;;;;;;8.55;2.13;;;;;;;24.71;47.02;98637.63;5092361;28;20047;-48
2022/06/04 04:35:25;;;;;;;9.55;2.35;;;;;;;25.15;46.09;98634.69;5093274;28;20024;-49
2022/06/04 04:37:52;;;;;;;7.38;1.67;;;;;;;25.64;45.12;98636.72;5092243;28;20035;-49
2022/06/04 04:40:20;;;;;;;8.25;1.88;;;;;;;25.95;44.37;98637.97;5093382;28;20024;-49
2022/06/04 04:42:48;;;;;;;10.80;2.20;;;;;;;26.13;44.04;98633.53;5093259;28;20028;-49
2022/06/04 04:45:15;;;;;;;11.35;1.67;;;;;;;26.32;43.66;98634.19;5092859;28;20020;-48
2022/06/04 04:47:43;;;;;;;10.30;2.67;;;;;;;26.48;43.13;98637.28;5093274;28;20031;-49
2022/06/04 04:50:17;;;;;;;11.15;2.30;;;;;;;26.88;42.58;98638.19;5093463;28;20024;-48
2022/06/04 04:52:43;;;;;;;10.55;2.33;;;;;;;27.37;41.67;98640.16;5093271;28;20035;-48
2022/06/04 04:55:09;;;;;;;13.10;1.90;;;;;;;27.83;40.38;98636.13;5093144;28;20028;-49
2022/06/04 04:57:34;;;;;;;8.73;1.95;;;;;;;28.27;39.44;98634.25;5093066;28;20028;-47
2022/06/04 05:00:00;;;;;;;6.45;1.40;;;;;;;28.77;39.00;98641.81;5092971;28;20058;-47
2022/06/04 05:02:26;;;;;;;10.93;1.65;;;;;;;29.27;37.83;98660.13;5092993;28;20082;-49
2022/06/04 05:04:52;;;;;;;19.02;2.17;;;;;;;29.71;36.83;98656.41;5091685;28;20389;-49
2022/06/04 05:07:17;;;;;;;7.97;1.60;;;;;;;30.00;36.28;98650.16;5091610;28;20027;-49
2022/06/04 05:09:43;;;;;;;10.40;1.85;;;;;;;30.27;35.68;98644.22;5092873;28;20020;-49
2022/06/04 05:12:09;;;;;;;5.35;1.35;;;;;;;30.40;35.15;98653.19;5092849;28;20174;-49
2022/06/04 05:14:36;;;;;;;8.77;2.00;;;;;;;30.57;35.19;98662.31;5092794;28;20016;-49
2022/06/04 05:17:02;;;;;;;5.78;1.48;;;;;;;30.72;34.60;98653.53;5091403;28;20038;-49
2022/06/04 05:19:28;;;;;;;14.00;2.10;;;;;;;30.93;34.18;98652.69;5091283;28;20024;-49
2022/06/04 05:21:58;;;;;;;7.10;1.52;;;;;;;30.93;33.94;98645.38;5092611;28;20493;-49
2022/06/04 05:24:27;;;;;;;9.25;1.30;;;;;;;30.92;33.71;98648.41;5091245;28;20020;-49
2022/06/04 05:26:54;;;;;;;4.95;1.58;;;;;;;31.01;34.07;98649.91;5092597;28;20020;-48
2022/06/04 05:29:20;;;;;;;6.43;1.25;;;;;;;31.37;33.48;98652.94;5091205;28;20032;-48
2022/06/04 05:31:47;;;;;;;6.95;1.73;;;;;;;31.97;32.85;98648.59;5091119;28;20590;-49
2022/06/04 05:34:15;;;;;;;12.43;2.10;;;;;;;32.01;32.43;98646.00;5092432;28;20381;-49
2022/06/04 05:36:41;;;;;;;5.53;1.50;;;;;;;32.15;32.36;98648.34;5092200;28;20043;-49
2022/06/04 05:39:08;;;;;;;6.57;1.40;;;;;;;32.32;31.89;98658.16;5092329;28;20107;-49
2022/06/04 05:41:34;;;;;;;6.75;1.90;;;;;;;32.40;31.51;98666.13;5090961;28;20032;-49
2022/06/04 05:44:00;;;;;;;6.68;1.48;;;;;;;32.17;31.77;98665.09;5090984;28;20020;-49
2022/06/04 05:46:25;;;;;;;23.27;2.53;;;;;;;32.11;32.52;98666.47;5090929;28;20032;-49
2022/06/04 05:48:52;;;;;;;5.10;1.55;;;;;;;33.00;31.39;98663.47;5090903;28;20082;-48
2022/06/04 05:51:21;;;;;;;5.35;1.63;;;;;;;33.58;30.38;98662.13;5092138;28;20030;-49
2022/06/04 05:53:48;;;;;;;11.00;2.13;;;;;;;34.03;29.65;98658.06;5090833;28;20024;-49
2022/06/04 05:56:19;;;;;;;9.95;2.03;;;;;;;34.55;28.97;98653.25;5092079;28;20027;-49
2022/06/04 05:58:47;;;;;;;5.55;1.60;;;;;;;34.95;28.49;98655.56;5092162;28;20105;-49
2022/06/04 06:01:15;;;;;;;5.03;1.95;;;;;;;35.44;27.84;98655.94;5092068;28;20027;-49
2022/06/04 06:03:45;;;;;;;7.68;1.70;;;;;;;36.19;26.77;98657.00;5090714;28;20501;-49
2022/06/04 06:06:16;;;;;;;7.65;1.92;;;;;;;36.25;26.49;98652.75;5092035;28;20024;-49
2022/06/04 06:08:42;;;;;;;4.53;2.25;;;;;;;36.53;25.79;98655.03;5092070;28;20020;-48
2022/06/04 06:11:11;;;;;;;3.95;1.23;;;;;;;36.44;26.00;98656.47;5091953;28;20394;-49
2022/06/04 06:13:38;;;;;;;7.53;1.55;;;;;;;36.43;26.06;98652.19;5091995;28;20405;-49
2022/06/04 06:16:09;;;;;;;3.25;1.20;;;;;;;36.71;25.87;98657.97;5090540;28;20020;-49
2022/06/04 06:18:36;;;;;;;9.18;1.58;;;;;;;37.47;24.85;98656.63;5091943;28;20030;-49
2022/06/04 06:21:10;;;;;;;7.95;1.52;;;;;;;37.38;24.26;98653.44;5091776;28;20024;-49
2022/06/04 06:23:38;;;;;;;9.85;1.52;;;;;;;37.38;24.84;98656.19;5090534;28;20057;-49
2022/06/04 06:26:08;;;;;;;4.78;1.42;;;;;;;37.91;24.50;98649.44;5091855;28;20020;-49
2022/06/04 06:28:36;;;;;;;5.57;1.40;;;;;;;38.49;23.89;98650.44;5091745;28;20038;-49
2022/06/04 06:31:03;;;;;;;7.53;1.80;;;;;;;38.97;22.92;98652.91;5091762;28;20031;-49
2022/06/04 06:33:28;;;;;;;4.13;1.40;;;;;;;39.43;23.06;98649.34;5091716;28;20047;-49
2022/06/04 06:36:02;;;;;;;4.63;1.30;;;;;;;39.74;21.83;98657.91;5091448;28;20083;-50
2022/06/04 06:38:28;;;;;;;;;;;;;;;39.71;22.95;98651.25;5092153;28;20028;-48
2022/06/04 06:40:57;;;;;;;6.93;1.70;;;;;;;39.70;22.31;98651.63;5090283;28;19912;-48
2022/06/04 06:43:35;;;;;;;5.35;1.30;;;;;;;39.78;21.55;98655.16;5090320;28;20049;-47
2022/06/04 06:46:04;;;;;;;6.72;1.35;;;;;;;39.13;22.59;98647.78;5091885;28;20028;-48
2022/06/04 06:48:30;;;;;;;4.93;1.30;;;;;;;39.06;22.72;98644.25;5090278;28;20024;-48
2022/06/04 06:50:56;;;;;;;3.67;1.13;;;;;;;38.74;23.22;98662.28;5090245;28;20067;-48
2022/06/04 06:53:21;;;;;;;4.25;1.63;;;;;;;38.84;23.08;98649.75;5090479;28;20053;-48
2022/06/04 06:55:47;;;;;;;6.78;1.60;;;;;;;39.19;22.97;98641.91;5091568;28;20096;-48
2022/06/04 06:58:12;;;;;;;7.55;2.10;;;;;;;39.75;22.66;98629.25;5091539;28;20024;-48
2022/06/04 07:00:38;;;;;;;7.05;1.90;;;;;;;40.25;21.53;98631.78;5091394;28;20028;-48
2022/06/04 07:03:05;;;;;;;8.85;2.70;;;;;;;40.26;21.57;98629.81;5091468;28;20027;-48
2022/06/04 07:05:31;;;;;;;4.72;2.03;;;;;;;40.49;21.53;98632.84;5091398;28;20069;-48
2022/06/04 07:07:57;;;;;;;5.57;1.48;;;;;;;40.54;21.31;98637.91;5092820;28;20522;-48
2022/06/04 07:10:22;;;;;;;5.50;1.63;;;;;;;40.25;21.33;98644.75;5095174;28;20032;-49
2022/06/04 07:12:48;;;;;;;6.85;1.23;;;;;;;39.23;22.51;98645.44;5095190;28;20028;-48
2022/06/04 07:15:15;;;;;;;9.82;2.05;;;;;;;37.79;24.31;98642.34;5095029;28;20565;-49
2022/06/04 07:17:41;;;;;;;8.80;2.45;;;;;;;37.09;26.59;98641.47;5076950;28;20497;-48
2022/06/04 07:20:08;;;;;;;8.30;2.25;;;;;;;36.18;26.22;98642.53;5093569;28;20080;-50
2022/06/04 07:22:33;;;;;;;7.80;1.88;;;;;;;35.57;27.43;98633.50;5094978;28;20059;-48
2022/06/04 07:24:59;;;;;;;11.23;2.50;;;;;;;35.45;27.86;98636.47;5094907;28;20112;-48
2022/06/04 07:27:25;;;;;;;14.93;2.83;;;;;;;35.64;28.03;98640.22;5094838;28;20024;-48
2022/06/04 07:29:50;;;;;;;19.00;4.40;;;;;;;35.70;27.72;98630.59;5093454;28;20520;-50
2022/06/04 07:32:16;;;;;;;11.65;3.38;;;;;;;36.00;27.92;98628.66;5094787;28;20389;-49
2022/06/04 07:34:42;;;;;;;11.32;3.05;;;;;;;36.58;26.43;98632.00;5094748;28;20386;-48
2022/06/04 07:37:09;;;;;;;9.13;2.08;;;;;;;36.17;26.76;98619.09;5093151;28;20060;-48
2022/06/04 07:39:35;;;;;;;7.25;1.85;;;;;;;35.37;27.88;98626.59;5094580;28;20028;-47
2022/06/04 07:42:01;;;;;;;12.27;2.50;;;;;;;35.26;28.64;98626.44;5094571;28;20030;-49
2022/06/04 07:44:27;;;;;;;7.18;2.20;;;;;;;35.71;27.78;98624.75;5093218;28;20024;-49
2022/06/04 07:46:56;;;;;;;13.20;3.47;;;;;;;35.82;27.78;98619.44;5094475;28;20042;-48
2022/06/04 07:49:22;;;;;;;18.35;3.50;;;;;;;36.45;26.51;98617.84;5094222;28;20502;-48
2022/06/04 07:51:49;;;;;;;14.70;4.40;;;;;;;36.84;25.83;98616.66;5094476;28;20099;-49
2022/06/04 07:54:16;;;;;;;13.02;2.30;;;;;;;37.18;25.13;98620.06;5093063;28;20027;-50
2022/06/04 07:56:42;;;;;;;11.02;3.20;;;;;;;37.44;25.22;98607.31;5094315;28;20028;-49
2022/06/04 07:59:11;;;;;;;12.27;3.58;;;;;;;37.79;24.45;98623.16;5094233;28;20030;-48
2022/06/04 08:01:36;;;;;;;8.48;2.78;;;;;;;38.00;24.65;98616.22;5092909;28;20034;-48
2022/06/04 08:04:02;;;;;;;11.95;2.80;;;;;;;37.81;24.51;98612.59;5094220;28;20020;-48
2022/06/04 08:06:31;;;;;;;16.23;4.32;;;;;;;37.81;24.61;98609.09;5094139;28;20078;-49
2022/06/04 08:09:00;;;;;;;9.45;2.17;;;;;;;38.14;24.60;98608.84;5094029;28;20023;-49
2022/06/04 08:11:34;;;;;;;9.40;2.50;;;;;;;38.25;24.43;98605.34;5092761;28;20035;-49
2022/06/04 08:14:19;;;;;;;14.10;2.90;;;;;;;38.53;23.75;98610.13;5094075;28;20036;-50
2022/06/04 08:16:54;;;;;;;14.85;4.40;;;;;;;38.32;24.33;98613.59;5093930;28;20028;-49
2022/06/04 08:19:25;;;;;;;11.77;2.65;;;;;;;38.78;23.41;98609.34;5092776;28;20024;-49
2022/06/04 08:21:52;;;;;;;8.52;3.03;;;;;;;38.60;23.22;98606.59;5092538;28;20032;-49
2022/06/04 08:24:22;;;;;;;19.98;4.13;;;;;;;38.28;23.20;98607.31;5092510;28;20051;-49
2022/06/04 08:26:59;;;;;;;15.48;3.47;;;;;;;38.36;23.19;98612.44;5093754;28;20477;-50
2022/06/04 08:29:31;;;;;;;14.93;4.78;;;;;;;39.09;23.17;98605.06;5092391;28;20448;-49
2022/06/04 08:31:57;;;;;;;8.10;2.85;;;;;;;39.47;22.21;98602.66;5092392;28;20093;-49
2022/06/04 08:34:23;;;;;;;14.30;3.53;;;;;;;39.79;22.29;98596.28;5093671;28;20390;-49
2022/06/04 08:36:49;;;;;;;9.15;2.60;;;;;;;40.06;22.01;98605.56;5092002;28;20044;-47
2022/06/04 08:39:15;;;;;;;17.92;4.00;;;;;;;40.31;21.35;98601.94;5093451;28;20732;-47
2022/06/04 08:42:03;;;;;;;14.25;3.50;;;;;;;40.25;21.03;98593.28;5093495;28;20493;-48
2022/06/04 08:44:43;;;;;;;14.25;3.88;;;;;;;40.29;21.12;98605.06;5093340;28;20048;-48
2022/06/04 08:47:18;;;;;;;15.98;4.60;;;;;;;40.27;21.61;98599.19;5093430;28;20501;-50
2022/06/04 08:49:56;;;;;;;14.07;4.97;;;;;;;41.09;20.96;98599.75;5092044;28;20032;-48
2022/06/04 08:52:42;;;;;;;15.13;3.13;;;;;;;41.13;20.56;98600.50;5093258;28;20030;-48
2022/06/04 08:58:18;;;;;;;11.52;3.53;;;;;;;42.43;19.15;98599.75;5093469;28;20055;-53
2022/06/04 09:00:52;;;;;;;16.55;3.38;;;;;;;41.70;20.23;98607.41;5093311;28;20035;-53
2022/06/04 09:03:20;;;;;;;14.35;3.55;;;;;;;41.15;20.64;98600.84;5093054;28;20032;-53
2022/06/04 09:06:00;;;;;;;21.13;4.10;;;;;;;41.22;21.03;98600.81;5093011;28;20062;-51
2022/06/04 09:08:44;;;;;;;12.38;3.92;;;;;;;41.87;20.91;98600.88;5093038;28;20751;-52
2022/06/04 09:11:37;;;;;;;18.52;4.80;;;;;;;42.95;19.28;98596.56;5092876;28;20055;-52
2022/06/04 09:14:15;;;;;;;13.02;3.10;;;;;;;43.55;18.42;98587.56;5091009;28;20082;-52
2022/06/04 09:16:48;;;;;;;8.65;3.03;;;;;;;44.06;18.15;98594.41;5091397;28;20031;-51
2022/06/04 09:19:18;;;;;;;12.18;4.07;;;;;;;44.53;17.99;98582.28;5092620;28;20035;-51
2022/06/04 09:21:45;;;;;;;9.68;4.00;;;;;;;44.59;17.89;98596.38;5092695;28;20020;-52
2022/06/04 09:24:12;;;;;;;17.17;3.88;;;;;;;44.19;17.79;98591.78;5092617;28;20035;-51
2022/06/04 09:27:14;;;;;;;22.13;4.95;;;;;;;44.47;17.65;98590.34;5092546;28;20016;-52
2022/06/04 09:29:58;;;;;;;13.13;3.67;;;;;;;44.49;17.63;98584.38;5092361;28;20040;-53
2022/06/04 09:32:46;;;;;;;17.55;3.78;;;;;;;44.50;17.35;98580.41;5091216;28;20028;-53
2022/06/04 09:35:17;;;;;;;10.80;3.60;;;;;;;44.51;17.18;98576.41;5092460;28;20077;-53
2022/06/04 09:37:48;;;;;;;16.40;5.35;;;;;;;43.93;18.35;98579.69;5092468;28;20043;-53
2022/06/04 09:40:29;;;;;;;14.88;3.83;;;;;;;44.16;17.58;98576.03;5090943;28;20047;-52
2022/06/04 09:43:15;;;;;;;19.50;3.97;;;;;;;43.73;18.51;98574.19;5091074;28;20090;-52
2022/06/04 09:45:49;;;;;;;14.00;3.88;;;;;;;43.28;18.85;98574.69;5092329;28;20496;-51
2022/06/04 09:48:37;;;;;;;13.52;3.50;;;;;;;43.33;18.68;98584.44;5092338;28;20508;-53
2022/06/04 09:51:14;;;;;;;14.60;4.43;;;;;;;42.84;19.38;98587.66;5092216;28;20038;-53
2022/06/04 09:53:47;;;;;;;20.40;4.05;;;;;;;42.62;19.33;98577.00;5092287;28;20020;-51
2022/06/04 09:56:16;;;;;;;21.08;4.88;;;;;;;43.02;19.06;98587.38;5092119;28;20110;-52
2022/06/04 09:58:47;;;;;;;16.58;3.85;;;;;;;43.33;17.93;98576.97;5092353;28;20028;-52
2022/06/04 10:01:15;;;;;;;22.17;4.60;;;;;;;43.30;17.93;98575.03;5090671;28;20055;-52
2022/06/04 10:03:43;;;;;;;15.20;3.70;;;;;;;43.22;18.09;98568.84;5092093;28;20137;-53
2022/06/04 10:06:15;;;;;;;12.15;4.35;;;;;;;43.16;18.09;98565.00;5092004;28;20016;-53
2022/06/04 10:11:56;;;;;;;20.08;4.85;;;;;;;42.28;18.97;98568.81;5092245;28;20169;-53
2022/06/04 10:14:31;;;;;;;17.50;4.95;;;;;;;41.38;19.84;98574.69;5091908;28;20524;-51
2022/06/04 10:16:58;;;;;;;17.50;4.03;;;;;;;41.45;19.68;98561.59;5091809;28;20032;-51
2022/06/04 10:19:25;;;;;;;16.08;4.47;;;;;;;41.73;19.31;98559.72;5091824;28;20016;-51
2022/06/04 10:22:21;;;;;;;17.27;3.78;;;;;;;42.51;18.99;98562.59;5091798;28;20043;-51
2022/06/04 10:24:55;;;;;;;16.65;3.90;;;;;;;43.53;17.52;98554.03;5091842;28;20070;-51
2022/06/04 10:27:48;;;;;;;17.33;4.05;;;;;;;43.87;17.35;98562.81;5091887;28;20859;-50
2022/06/04 10:30:38;;;;;;;19.00;4.10;;;;;;;44.36;17.37;98561.34;5090465;28;20428;-53
2022/06/04 10:33:12;;;;;;;16.38;4.20;;;;;;;44.08;17.24;98556.03;5091807;28;20397;-53
2022/06/04 10:36:04;;;;;;;15.85;3.50;;;;;;;43.85;16.63;98558.91;5091481;28;20055;-52
2022/06/04 10:38:46;;;;;;;17.05;3.67;;;;;;;43.34;17.68;98547.34;5091749;28;20020;-53
2022/06/04 10:41:30;;;;;;;16.20;3.95;;;;;;;43.20;17.28;98542.84;5091646;28;20024;-52
2022/06/04 10:44:33;;;;;;;19.65;4.57;;;;;;;42.91;18.12;98532.34;5095806;28;20081;-51
2022/06/04 10:47:04;;;;;;;15.75;4.22;;;;;;;42.65;18.30;98551.31;5095621;28;20024;-50
2022/06/04 10:50:08;;;;;;;18.20;6.15;;;;;;;42.58;18.46;98531.31;5096208;28;20024;-52
2022/06/04 10:52:48;;;;;;;15.40;4.80;;;;;;;42.87;18.05;98528.88;5095672;28;20145;-51
2022/06/04 10:55:46;;;;;;;22.52;4.68;;;;;;;43.02;18.02;98527.38;5095552;28;20501;-51
2022/06/04 10:58:24;;;;;;;15.80;4.47;;;;;;;42.72;17.77;98528.31;5095527;28;20059;-51
2022/06/04 11:01:15;;;;;;;16.85;4.05;;;;;;;42.29;18.37;98521.50;5095392;28;20520;-51
2022/06/04 11:04:17;;;;;;;17.33;4.00;;;;;;;43.03;17.83;98515.16;5094819;28;20044;-53
2022/06/04 11:06:50;;;;;;;16.20;3.80;;;;;;;43.33;17.48;98513.41;5095266;28;20054;-53
2022/06/04 11:09:21;;;;;;;18.75;4.70;;;;;;;43.37;17.43;98505.06;5095314;28;20046;-53
2022/06/04 11:11:52;;;;;;;18.80;3.80;;;;;;;43.42;17.50;98501.78;5095465;28;20028;-53
2022/06/04 11:14:40;;;;;;;18.17;4.13;;;;;;;43.78;17.41;98495.50;5093861;28;20038;-52
2022/06/04 11:17:43;;;;;;;12.80;3.50;;;;;;;44.02;16.77;98498.88;5095167;28;20026;-52
2022/06/04 11:20:17;;;;;;;15.50;3.45;;;;;;;44.67;16.43;98493.34;5094847;28;20574;-53
2022/06/04 11:22:54;;;;;;;16.42;3.95;;;;;;;45.01;16.44;98480.19;5095135;28;20028;-53
2022/06/04 11:25:32;;;;;;;18.73;4.60;;;;;;;44.84;16.58;98496.06;5095285;28;20039;-52
2022/06/04 11:28:01;;;;;;;20.38;4.85;;;;;;;44.38;16.93;98486.97;5095210;28;20109;-53
2022/06/04 11:30:50;;;;;;;23.48;4.78;;;;;;;43.91;17.23;98487.28;5095142;28;20501;-51
2022/06/04 11:33:38;;;;;;;17.70;4.72;;;;;;;43.42;17.71;98477.69;5093573;28;20024;-51
2022/06/04 11:36:19;;;;;;;16.23;4.60;;;;;;;43.59;17.43;98472.19;5092793;28;20482;-51
2022/06/04 11:39:00;;;;;;;14.63;3.50;;;;;;;44.09;16.93;98465.53;5095062;28;20063;-52
2022/06/04 11:42:13;;;;;;;11.18;3.38;;;;;;;43.80;17.12;98473.72;5094709;28;20050;-53
2022/06/04 11:44:51;;;;;;;15.95;4.50;;;;;;;43.12;17.07;98469.63;5057916;28;20044;-53
2022/06/04 11:47:29;;;;;;;19.63;4.10;;;;;;;42.90;18.12;98470.03;5094615;28;20028;-53
2022/06/04 11:50:21;;;;;;;11.95;3.28;;;;;;;42.91;17.38;98476.34;5094853;28;20036;-53
2022/06/04 11:53:08;;;;;;;17.95;4.15;;;;;;;42.80;18.63;98471.00;5076043;28;20115;-53
2022/06/04 11:55:46;;;;;;;17.80;4.20;;;;;;;42.22;18.60;98474.75;5094449;28;20067;-53
2022/06/04 11:58:35;;;;;;;15.52;4.22;;;;;;;42.28;18.67;98466.75;5094312;28;20481;-53
2022/06/04 12:01:32;;;;;;;22.88;3.80;;;;;;;42.61;18.75;98453.22;5092910;28;20123;-52
2022/06/04 12:04:06;;;;;;;18.08;3.58;;;;;;;42.76;19.01;98454.50;5094259;28;20063;-52
2022/06/04 12:06:43;;;;;;;15.27;4.38;;;;;;;42.79;18.09;98447.38;5092843;28;20055;-51
2022/06/04 12:09:20;;;;;;;16.27;3.95;;;;;;;43.31;17.00;98457.81;5092979;28;20036;-51